Time;durP1;ratioP1;P1;durP2;ratioP2;P2;SDS_P1;SDS_P2;PMS_P1;PMS_P2;Temp;Humidity;BMP_temperature;BMP_pressure;BME280_temperature;BME280_humidity;BME280_pressure;Samples;Min_cycle;Max_cycle;Signal;HPM_P1;HPM_P2
2023/01/08 00:00:44;;;;;;;33.10;16.47;;;;;;;;;;5032182;28;20078;-79
2023/01/08 00:03:10;;;;;;;29.13;15.23;;;;;;;;;;5030121;28;20702;-79
2023/01/08 00:05:36;;;;;;;33.60;14.60;;;;;;;;;;5030578;28;20083;-78
2023/01/08 00:08:02;;;;;;;31.40;15.47;;;;;;;;;;5030303;28;20021;-78
2023/01/08 00:10:28;;;;;;;34.90;15.23;;;;;;;;;;5032496;28;20373;-79
2023/01/08 00:12:57;;;;;;;34.57;15.33;;;;;;;;;;5030597;28;20025;-78
2023/01/08 00:15:23;;;;;;;30.43;15.63;;;;;;;;;;5031668;28;20041;-79
2023/01/08 00:17:52;;;;;;;32.50;17.00;;;;;;;;;;5030695;28;20405;-79
2023/01/08 00:20:17;;;;;;;26.97;13.10;;;;;;;;;;5032373;28;20036;-78
2023/01/08 00:22:43;;;;;;;33.47;14.97;;;;;;;;;;5031006;28;20021;-79
2023/01/08 00:25:08;;;;;;;23.63;12.13;;;;;;;;;;5030920;28;20124;-79
2023/01/08 00:27:34;;;;;;;23.00;11.77;;;;;;;;;;5030369;28;20104;-79
2023/01/08 00:29:59;;;;;;;23.10;11.40;;;;;;;;;;5031151;28;20091;-78
2023/01/08 00:32:25;;;;;;;24.73;11.20;;;;;;;;;;5030826;28;20417;-78
2023/01/08 00:34:53;;;;;;;25.73;11.27;;;;;;;;;;5030920;28;20112;-79
2023/01/08 00:37:19;;;;;;;22.57;11.57;;;;;;;;;;5030762;28;20033;-78
2023/01/08 00:39:44;;;;;;;19.17;11.47;;;;;;;;;;5031195;28;20037;-79
2023/01/08 00:42:10;;;;;;;24.10;12.50;;;;;;;;;;5030633;28;20383;-78
2023/01/08 00:44:37;;;;;;;22.50;12.40;;;;;;;;;;5031753;28;20048;-78
2023/01/08 00:47:03;;;;;;;22.83;11.30;;;;;;;;;;5029707;28;20090;-78
2023/01/08 00:49:28;;;;;;;25.53;13.17;;;;;;;;;;5029700;28;20033;-78
2023/01/08 00:51:54;;;;;;;27.67;13.37;;;;;;;;;;5029544;28;20033;-77
2023/01/08 00:54:20;;;;;;;22.33;12.70;;;;;;;;;;5029739;28;20128;-78
2023/01/08 00:56:45;;;;;;;21.73;11.57;;;;;;;;;;5030004;28;20033;-78
2023/01/08 00:59:11;;;;;;;24.23;12.67;;;;;;;;;;5032461;28;20044;-79
2023/01/08 01:01:37;;;;;;;21.40;11.23;;;;;;;;;;5030597;28;20029;-79
2023/01/08 01:04:03;;;;;;;23.20;11.17;;;;;;;;;;5030835;28;20037;-79
2023/01/08 01:06:29;;;;;;;27.60;12.60;;;;;;;;;;5030472;28;20392;-78
2023/01/08 01:08:56;;;;;;;21.67;12.10;;;;;;;;;;5030219;28;20034;-78
2023/01/08 01:11:26;;;;;;;21.77;10.90;;;;;;;;;;5030256;28;20087;-77
2023/01/08 01:13:54;;;;;;;18.67;9.83;;;;;;;;;;5030433;28;20025;-79
2023/01/08 01:16:20;;;;;;;22.20;10.90;;;;;;;;;;5032766;28;20025;-79
2023/01/08 01:18:46;;;;;;;22.73;11.63;;;;;;;;;;5030399;28;20392;-80
2023/01/08 01:21:18;;;;;;;21.73;11.23;;;;;;;;;;5030320;28;20381;-79
2023/01/08 01:23:44;;;;;;;24.03;11.60;;;;;;;;;;5031807;28;20083;-78
2023/01/08 01:26:28;;;;;;;20.53;11.57;;;;;;;;;;5030182;28;20029;-78
2023/01/08 01:28:55;;;;;;;21.17;10.47;;;;;;;;;;5031858;28;20033;-79
2023/01/08 01:31:22;;;;;;;18.93;10.53;;;;;;;;;;5031010;28;20021;-79
2023/01/08 01:33:48;;;;;;;20.53;11.10;;;;;;;;;;5030885;28;20039;-77
2023/01/08 01:36:15;;;;;;;19.67;10.23;;;;;;;;;;5031535;28;20064;-78
2023/01/08 01:38:45;;;;;;;19.30;12.90;;;;;;;;;;5013288;28;20034;-78
2023/01/08 01:41:32;;;;;;;20.43;10.83;;;;;;;;;;5029166;28;20049;-78
2023/01/08 01:44:19;;;;;;;16.17;9.30;;;;;;;;;;5029948;28;20528;-79
2023/01/08 01:46:46;;;;;;;19.50;9.57;;;;;;;;;;5028793;28;20346;-78
2023/01/08 01:49:18;;;;;;;15.63;9.83;;;;;;;;;;5028673;28;20033;-79
2023/01/08 01:51:49;;;;;;;17.63;10.23;;;;;;;;;;5028305;28;20029;-78
2023/01/08 01:54:17;;;;;;;20.60;10.97;;;;;;;;;;5028152;28;20025;-78
2023/01/08 01:56:44;;;;;;;19.50;11.30;;;;;;;;;;5028558;28;20025;-78
2023/01/08 01:59:11;;;;;;;20.33;10.43;;;;;;;;;;5028288;28;20025;-78
2023/01/08 02:01:37;;;;;;;20.90;9.80;;;;;;;;;;5028937;28;20078;-77
2023/01/08 02:04:03;;;;;;;20.37;10.97;;;;;;;;;;5029619;28;20632;-78
2023/01/08 02:06:39;;;;;;;17.57;9.03;;;;;;;;;;5028607;28;20033;-77
2023/01/08 02:09:36;;;;;;;16.47;9.67;;;;;;;;;;5028486;28;20470;-77
2023/01/08 02:12:16;;;;;;;20.97;10.50;;;;;;;;;;5028427;28;20041;-77
2023/01/08 02:15:01;;;;;;;18.30;9.67;;;;;;;;;;5028329;28;20025;-78
2023/01/08 02:17:47;;;;;;;17.90;9.40;;;;;;;;;;5028507;28;20025;-77
2023/01/08 02:20:18;;;;;;;19.80;10.30;;;;;;;;;;5028289;28;20136;-78
2023/01/08 02:23:21;;;;;;;19.23;10.25;;;;;;;;;;5028544;28;20025;-78
2023/01/08 02:25:56;;;;;;;17.83;9.50;;;;;;;;;;5029888;28;20582;-77
2023/01/08 02:28:22;;;;;;;18.17;9.83;;;;;;;;;;5028193;28;20470;-78
2023/01/08 02:30:48;;;;;;;16.93;9.63;;;;;;;;;;5029562;28;20021;-76
2023/01/08 02:33:14;;;;;;;19.53;9.63;;;;;;;;;;5029322;28;20478;-78
2023/01/08 02:36:22;;;;;;;16.63;9.57;;;;;;;;;;5029988;28;20083;-79
2023/01/08 02:39:05;;;;;;;17.47;11.47;;;;;;;;;;5027651;28;20034;-78
2023/01/08 02:41:55;;;;;;;19.07;9.77;;;;;;;;;;5028315;28;20055;-79
2023/01/08 02:44:34;;;;;;;15.10;8.33;;;;;;;;;;5029304;28;20045;-78
2023/01/08 02:47:02;;;;;;;18.83;9.63;;;;;;;;;;5029543;28;20033;-79
2023/01/08 02:49:30;;;;;;;15.80;9.13;;;;;;;;;;5028469;28;20064;-78
2023/01/08 02:51:59;;;;;;;15.67;8.57;;;;;;;;;;5029966;28;20108;-79
2023/01/08 02:54:30;;;;;;;14.73;8.73;;;;;;;;;;5031832;28;20035;-79
2023/01/08 02:57:01;;;;;;;16.83;9.07;;;;;;;;;;5032797;28;20120;-79
2023/01/08 02:59:30;;;;;;;16.80;9.43;;;;;;;;;;5031748;28;20481;-78
2023/01/08 03:01:56;;;;;;;17.73;9.03;;;;;;;;;;5031673;28;20032;-79
2023/01/08 03:04:24;;;;;;;14.23;8.93;;;;;;;;;;5014410;28;20425;-78
2023/01/08 03:06:50;;;;;;;16.27;9.30;;;;;;;;;;5031614;28;20048;-78
2023/01/08 03:09:16;;;;;;;16.50;9.03;;;;;;;;;;5032747;28;20029;-78
2023/01/08 03:11:54;;;;;;;16.07;10.37;;;;;;;;;;5032893;28;20029;-78
2023/01/08 03:14:34;;;;;;;18.47;9.00;;;;;;;;;;5032526;28;20029;-77
2023/01/08 03:17:11;;;;;;;14.80;9.10;;;;;;;;;;5031649;28;20037;-78
2023/01/08 03:19:43;;;;;;;15.30;8.80;;;;;;;;;;5032815;28;20041;-77
2023/01/08 03:22:11;;;;;;;15.98;8.70;;;;;;;;;;5032423;28;20022;-78
2023/01/08 03:24:38;;;;;;;17.37;8.37;;;;;;;;;;5033725;28;20552;-78
2023/01/08 03:27:07;;;;;;;15.40;8.63;;;;;;;;;;5033610;28;20096;-78
2023/01/08 03:29:34;;;;;;;17.23;9.63;;;;;;;;;;5032563;28;20033;-78
2023/01/08 03:32:04;;;;;;;16.53;9.63;;;;;;;;;;5031844;28;20029;-79
2023/01/08 03:34:31;;;;;;;16.47;9.70;;;;;;;;;;5034116;28;20036;-78
2023/01/08 03:36:59;;;;;;;15.87;9.83;;;;;;;;;;5033952;28;20029;-79
2023/01/08 03:39:48;;;;;;;19.23;9.27;;;;;;;;;;5031426;28;20029;-78
2023/01/08 03:42:16;;;;;;;15.93;9.50;;;;;;;;;;5032159;28;20088;-78
2023/01/08 03:44:43;;;;;;;17.07;9.50;;;;;;;;;;5032647;28;20498;-78
2023/01/08 03:47:10;;;;;;;16.23;10.10;;;;;;;;;;5032258;28;20132;-78
2023/01/08 03:49:38;;;;;;;16.10;9.20;;;;;;;;;;5031962;28;20347;-78
2023/01/08 03:52:03;;;;;;;16.00;8.80;;;;;;;;;;5031241;28;20026;-78
2023/01/08 03:54:31;;;;;;;15.80;9.33;;;;;;;;;;5033040;28;20036;-78
2023/01/08 03:56:56;;;;;;;15.97;9.73;;;;;;;;;;5031720;28;20116;-79
2023/01/08 03:59:22;;;;;;;17.07;9.37;;;;;;;;;;5031536;28;20121;-78
2023/01/08 04:01:47;;;;;;;14.50;8.93;;;;;;;;;;5032159;28;20524;-79
2023/01/08 04:04:13;;;;;;;16.47;9.97;;;;;;;;;;5032104;28;20029;-78
2023/01/08 04:06:39;;;;;;;19.93;9.80;;;;;;;;;;5031482;28;20026;-80
2023/01/08 04:09:04;;;;;;;15.60;9.07;;;;;;;;;;5031885;28;20026;-79
2023/01/08 04:11:31;;;;;;;14.07;8.43;;;;;;;;;;5030965;28;20462;-79
2023/01/08 04:13:56;;;;;;;14.63;9.00;;;;;;;;;;5030312;28;20121;-79
2023/01/08 04:16:22;;;;;;;17.27;9.73;;;;;;;;;;5029853;28;20339;-79
2023/01/08 04:18:48;;;;;;;16.80;8.90;;;;;;;;;;5029496;28;20416;-78
2023/01/08 04:21:13;;;;;;;14.47;8.57;;;;;;;;;;5029805;28;20029;-79
2023/01/08 04:23:39;;;;;;;15.87;9.03;;;;;;;;;;5029588;28;20033;-79
2023/01/08 04:26:06;;;;;;;20.33;10.10;;;;;;;;;;5029484;28;20474;-79
2023/01/08 04:28:31;;;;;;;15.77;9.40;;;;;;;;;;5029905;28;20048;-79
2023/01/08 04:30:57;;;;;;;15.67;8.70;;;;;;;;;;5031367;28;20037;-79
2023/01/08 04:33:24;;;;;;;18.47;9.83;;;;;;;;;;5031003;28;20025;-79
2023/01/08 04:35:50;;;;;;;19.17;9.20;;;;;;;;;;5029867;28;20470;-79
2023/01/08 04:38:15;;;;;;;14.20;8.73;;;;;;;;;;5030590;28;20040;-79
2023/01/08 04:40:41;;;;;;;14.57;7.90;;;;;;;;;;5030175;28;20497;-79
2023/01/08 04:43:08;;;;;;;19.33;10.33;;;;;;;;;;5029792;28;20474;-78
2023/01/08 04:45:34;;;;;;;17.60;9.50;;;;;;;;;;5029704;28;20418;-78
2023/01/08 04:47:59;;;;;;;17.43;9.20;;;;;;;;;;5031414;28;20039;-79
2023/01/08 04:50:25;;;;;;;18.50;9.47;;;;;;;;;;5030036;28;20033;-79
2023/01/08 04:52:51;;;;;;;16.67;8.53;;;;;;;;;;5030142;28;20035;-79
2023/01/08 04:55:17;;;;;;;16.73;8.83;;;;;;;;;;5030160;28;20120;-79
2023/01/08 04:57:43;;;;;;;19.33;9.63;;;;;;;;;;5031357;28;20436;-79
2023/01/08 05:00:09;;;;;;;23.47;9.77;;;;;;;;;;5029367;28;20060;-78
2023/01/08 05:02:35;;;;;;;19.77;9.93;;;;;;;;;;5029288;28;20401;-79
2023/01/08 05:05:01;;;;;;;18.73;8.93;;;;;;;;;;5031270;28;20488;-79
2023/01/08 05:07:26;;;;;;;17.40;9.50;;;;;;;;;;5028968;28;20029;-79
2023/01/08 05:09:52;;;;;;;18.60;10.60;;;;;;;;;;5029437;28;20028;-79
2023/01/08 05:12:18;;;;;;;17.03;9.73;;;;;;;;;;5029129;28;20021;-79
2023/01/08 05:14:43;;;;;;;16.37;9.37;;;;;;;;;;5028616;28;20101;-80
2023/01/08 05:17:09;;;;;;;21.07;10.07;;;;;;;;;;5030877;28;20390;-79
2023/01/08 05:19:35;;;;;;;17.00;9.70;;;;;;;;;;5037343;28;20519;-78
2023/01/08 05:22:00;;;;;;;18.50;9.83;;;;;;;;;;5035446;28;20025;-79
2023/01/08 05:24:26;;;;;;;19.03;9.67;;;;;;;;;;5031291;28;20069;-79
2023/01/08 05:26:51;;;;;;;20.77;9.87;;;;;;;;;;5031254;28;20031;-79
2023/01/08 05:29:17;;;;;;;18.67;9.87;;;;;;;;;;5012369;28;20025;-80
2023/01/08 05:31:44;;;;;;;17.53;9.27;;;;;;;;;;5028695;28;20124;-79
2023/01/08 05:34:10;;;;;;;18.47;10.30;;;;;;;;;;5030321;28;20095;-79
2023/01/08 05:36:35;;;;;;;14.67;9.07;;;;;;;;;;5030766;28;20446;-79
2023/01/08 05:39:01;;;;;;;21.30;9.50;;;;;;;;;;5030167;28;20446;-79
2023/01/08 05:41:27;;;;;;;16.80;9.53;;;;;;;;;;5030524;28;20139;-80
2023/01/08 05:43:52;;;;;;;15.93;8.90;;;;;;;;;;5036403;28;20036;-80
2023/01/08 05:46:17;;;;;;;16.60;9.53;;;;;;;;;;5030846;28;20030;-79
2023/01/08 05:48:44;;;;;;;19.70;10.10;;;;;;;;;;5028730;28;20029;-79
2023/01/08 05:51:10;;;;;;;18.70;10.40;;;;;;;;;;5028476;28;20117;-77
2023/01/08 05:53:36;;;;;;;23.50;10.67;;;;;;;;;;5028749;28;20040;-79
2023/01/08 05:56:04;;;;;;;16.83;9.60;;;;;;;;;;5029007;28;20112;-79
2023/01/08 05:58:30;;;;;;;18.17;10.27;;;;;;;;;;5028817;28;20140;-79
2023/01/08 06:01:08;;;;;;;20.83;10.17;;;;;;;;;;5030099;28;20458;-79
2023/01/08 06:03:33;;;;;;;18.30;9.60;;;;;;;;;;5028521;28;20037;-79
2023/01/08 06:06:00;;;;;;;17.33;9.10;;;;;;;;;;5030224;28;20055;-79
2023/01/08 06:08:27;;;;;;;23.83;10.40;;;;;;;;;;5028463;28;20071;-79
2023/01/08 06:10:53;;;;;;;19.87;10.50;;;;;;;;;;5028578;28;20052;-79
2023/01/08 06:13:20;;;;;;;21.07;10.60;;;;;;;;;;5029989;28;20454;-79
2023/01/08 06:15:47;;;;;;;20.70;11.33;;;;;;;;;;5030509;28;20386;-80
2023/01/08 06:18:12;;;;;;;20.37;11.07;;;;;;;;;;5029535;28;20033;-79
2023/01/08 06:20:38;;;;;;;23.33;11.00;;;;;;;;;;5029194;28;20029;-80
2023/01/08 06:23:03;;;;;;;27.23;12.37;;;;;;;;;;5028379;28;20040;-80
2023/01/08 06:25:29;;;;;;;22.07;11.30;;;;;;;;;;5029476;28;20041;-80
2023/01/08 06:27:55;;;;;;;18.80;10.07;;;;;;;;;;5015489;28;20033;-79
2023/01/08 06:30:20;;;;;;;18.83;10.63;;;;;;;;;;5033644;28;20044;-80
2023/01/08 06:32:46;;;;;;;21.53;10.47;;;;;;;;;;5033605;28;20025;-80
2023/01/08 06:35:11;;;;;;;22.40;11.10;;;;;;;;;;5034933;28;20793;-79
2023/01/08 06:37:37;;;;;;;18.37;10.00;;;;;;;;;;5032254;28;20022;-80
2023/01/08 06:40:03;;;;;;;23.03;11.13;;;;;;;;;;5033944;28;20030;-78
2023/01/08 06:42:28;;;;;;;20.50;10.73;;;;;;;;;;5032172;28;20091;-79
2023/01/08 06:44:54;;;;;;;25.23;11.53;;;;;;;;;;5033627;28;20087;-82
2023/01/08 06:47:19;;;;;;;25.70;11.93;;;;;;;;;;5032975;28;20057;-80
2023/01/08 06:49:45;;;;;;;23.17;11.00;;;;;;;;;;5032064;28;20539;-79
2023/01/08 06:52:11;;;;;;;22.50;11.23;;;;;;;;;;5033568;28;20458;-79
2023/01/08 06:54:36;;;;;;;21.37;10.57;;;;;;;;;;5031625;28;20521;-79
2023/01/08 06:57:02;;;;;;;18.57;10.57;;;;;;;;;;5031441;28;20377;-79
2023/01/08 06:59:27;;;;;;;18.63;10.30;;;;;;;;;;5031676;28;20053;-79
2023/01/08 07:01:53;;;;;;;22.33;10.03;;;;;;;;;;5032257;28;20366;-80
2023/01/08 07:04:19;;;;;;;18.90;9.63;;;;;;;;;;5031706;28;20175;-78
2023/01/08 07:06:45;;;;;;;21.27;9.40;;;;;;;;;;5031955;28;20030;-79
2023/01/08 07:09:14;;;;;;;24.67;11.10;;;;;;;;;;5033218;28;20495;-80
2023/01/08 07:11:41;;;;;;;21.73;11.40;;;;;;;;;;5032844;28;20037;-80
2023/01/08 07:14:07;;;;;;;25.83;10.63;;;;;;;;;;5031579;28;20515;-79
2023/01/08 07:16:32;;;;;;;21.53;11.70;;;;;;;;;;5031793;28;20339;-78
2023/01/08 07:18:58;;;;;;;23.70;12.13;;;;;;;;;;5032007;28;20052;-79
2023/01/08 07:21:24;;;;;;;21.73;10.90;;;;;;;;;;5032002;28;20032;-80
2023/01/08 07:23:49;;;;;;;22.77;11.33;;;;;;;;;;5031819;28;20120;-80
2023/01/08 07:26:15;;;;;;;21.63;11.10;;;;;;;;;;5031691;28;20040;-78
2023/01/08 07:28:41;;;;;;;18.37;10.90;;;;;;;;;;5031775;28;20037;-79
2023/01/08 07:31:07;;;;;;;19.13;10.67;;;;;;;;;;5031059;28;20060;-79
2023/01/08 07:33:33;;;;;;;18.67;10.80;;;;;;;;;;5030788;28;20140;-80
2023/01/08 07:35:59;;;;;;;20.37;10.27;;;;;;;;;;5031586;28;20458;-79
2023/01/08 07:38:24;;;;;;;20.00;11.13;;;;;;;;;;5031126;28;20060;-79
2023/01/08 07:40:50;;;;;;;20.20;11.13;;;;;;;;;;5032926;28;20056;-79
2023/01/08 07:43:15;;;;;;;21.27;11.07;;;;;;;;;;5042148;28;20120;-79
2023/01/08 07:45:41;;;;;;;18.93;10.97;;;;;;;;;;5032604;28;20043;-79
2023/01/08 07:48:09;;;;;;;20.93;10.50;;;;;;;;;;5030559;28;20159;-77
2023/01/08 07:50:36;;;;;;;21.83;11.93;;;;;;;;;;5030103;28;20033;-77
2023/01/08 07:53:02;;;;;;;17.83;8.80;;;;;;;;;;5031719;28;20136;-79
2023/01/08 07:55:29;;;;;;;16.77;9.37;;;;;;;;;;5032480;28;20108;-79
2023/01/08 07:57:57;;;;;;;17.70;9.40;;;;;;;;;;5032526;28;20063;-79
2023/01/08 08:00:23;;;;;;;17.13;9.50;;;;;;;;;;5032290;28;20466;-78
2023/01/08 08:02:48;;;;;;;17.40;9.03;;;;;;;;;;5033648;28;20086;-78
2023/01/08 08:05:14;;;;;;;15.17;9.40;;;;;;;;;;5033595;28;20025;-78
2023/01/08 08:07:39;;;;;;;19.20;10.10;;;;;;;;;;5032052;28;20033;-78
2023/01/08 08:10:05;;;;;;;17.83;9.17;;;;;;;;;;5032890;28;20029;-78
2023/01/08 08:12:31;;;;;;;16.57;9.90;;;;;;;;;;5030534;28;20341;-76
2023/01/08 08:14:56;;;;;;;17.53;9.87;;;;;;;;;;5030749;28;20041;-77
2023/01/08 08:17:22;;;;;;;16.63;9.23;;;;;;;;;;5031025;28;20806;-78
2023/01/08 08:19:48;;;;;;;19.33;9.67;;;;;;;;;;5032846;28;20029;-78
2023/01/08 08:22:13;;;;;;;15.80;9.87;;;;;;;;;;5031482;28;20155;-82
2023/01/08 08:24:39;;;;;;;18.83;9.47;;;;;;;;;;5030504;28;20358;-80
2023/01/08 08:27:05;;;;;;;17.13;9.20;;;;;;;;;;5031260;28;20021;-80
2023/01/08 08:29:30;;;;;;;17.27;9.27;;;;;;;;;;5032151;28;20326;-80
2023/01/08 08:31:56;;;;;;;16.13;8.53;;;;;;;;;;5030037;28;20497;-80
2023/01/08 08:34:21;;;;;;;16.83;9.03;;;;;;;;;;5030044;28;20029;-79
2023/01/08 08:36:49;;;;;;;19.13;9.17;;;;;;;;;;5029876;28;20048;-79
2023/01/08 08:39:15;;;;;;;16.53;9.23;;;;;;;;;;5029430;28;20480;-79
2023/01/08 08:41:41;;;;;;;17.83;9.73;;;;;;;;;;5029228;28;20049;-79
2023/01/08 08:44:07;;;;;;;19.97;9.80;;;;;;;;;;5031072;28;20495;-79
2023/01/08 08:46:33;;;;;;;19.23;9.27;;;;;;;;;;5030161;28;20495;-79
2023/01/08 08:48:58;;;;;;;14.17;8.17;;;;;;;;;;5029457;28;20076;-80
2023/01/08 08:51:24;;;;;;;18.97;10.13;;;;;;;;;;5030218;28;20137;-80
2023/01/08 08:53:49;;;;;;;17.67;10.03;;;;;;;;;;5030979;28;20041;-79
2023/01/08 08:56:15;;;;;;;18.33;8.70;;;;;;;;;;5031094;28;20025;-80
2023/01/08 08:58:40;;;;;;;18.43;9.63;;;;;;;;;;5029822;28;20112;-80
2023/01/08 09:01:07;;;;;;;16.87;8.27;;;;;;;;;;5031017;28;20527;-80
2023/01/08 09:03:33;;;;;;;14.53;8.40;;;;;;;;;;5030970;28;20488;-79
2023/01/08 09:05:59;;;;;;;15.93;8.90;;;;;;;;;;5031154;28;20403;-79
2023/01/08 09:08:25;;;;;;;20.23;9.83;;;;;;;;;;5039220;28;20034;-79
2023/01/08 09:10:50;;;;;;;16.10;8.13;;;;;;;;;;5038249;28;20411;-78
2023/01/08 09:13:16;;;;;;;15.60;7.87;;;;;;;;;;5029478;28;20026;-80
2023/01/08 09:15:41;;;;;;;17.83;9.40;;;;;;;;;;5029722;28;20067;-80
2023/01/08 09:18:07;;;;;;;17.97;9.37;;;;;;;;;;5029344;28;20018;-81
2023/01/08 09:20:32;;;;;;;16.87;8.53;;;;;;;;;;5032278;28;20137;-80
2023/01/08 09:22:59;;;;;;;16.37;8.87;;;;;;;;;;5029597;28;20033;-81
2023/01/08 09:25:25;;;;;;;16.57;9.30;;;;;;;;;;5029416;28;20140;-80
2023/01/08 09:28:06;;;;;;;17.80;10.63;;;;;;;;;;5030831;28;20446;-79
2023/01/08 09:30:32;;;;;;;14.70;8.70;;;;;;;;;;5029706;28;20555;-80
2023/01/08 09:32:59;;;;;;;15.77;9.00;;;;;;;;;;5030120;28;20091;-80
2023/01/08 09:35:25;;;;;;;15.60;8.63;;;;;;;;;;5031639;28;20053;-80
2023/01/08 09:37:52;;;;;;;18.07;9.90;;;;;;;;;;5030640;28;20033;-80
2023/01/08 09:40:18;;;;;;;16.97;9.77;;;;;;;;;;5032390;28;20033;-82
2023/01/08 09:42:51;;;;;;;16.83;8.10;;;;;;;;;;5032903;28;20120;-80
2023/01/08 09:45:25;;;;;;;17.50;9.30;;;;;;;;;;5030474;28;20033;-82
2023/01/08 09:47:51;;;;;;;16.03;8.40;;;;;;;;;;5030360;28;20166;-81
2023/01/08 09:50:16;;;;;;;12.57;7.97;;;;;;;;;;5030515;28;20025;-81
2023/01/08 09:52:42;;;;;;;17.43;8.63;;;;;;;;;;5029814;28;20039;-82
2023/01/08 09:55:15;;;;;;;17.10;9.00;;;;;;;;;;5029724;28;20030;-80
2023/01/08 09:57:42;;;;;;;16.90;9.50;;;;;;;;;;5029842;28;20048;-80
2023/01/08 10:00:23;;;;;;;15.97;8.83;;;;;;;;;;5030551;28;20087;-82
2023/01/08 10:02:49;;;;;;;16.97;9.30;;;;;;;;;;5033139;28;20029;-81
2023/01/08 10:05:17;;;;;;;15.97;9.33;;;;;;;;;;5033629;28;20033;-80
2023/01/08 10:07:43;;;;;;;20.80;8.73;;;;;;;;;;5032868;28;20442;-80
2023/01/08 10:10:25;;;;;;;16.63;9.57;;;;;;;;;;5034277;28;20108;-80
2023/01/08 10:12:53;;;;;;;16.52;8.73;;;;;;;;;;5034377;28;20037;-82
2023/01/08 10:15:20;;;;;;;18.00;10.30;;;;;;;;;;5032853;28;20032;-79
2023/01/08 10:17:53;;;;;;;15.97;8.90;;;;;;;;;;5032338;28;20041;-80
2023/01/08 10:20:22;;;;;;;16.97;9.70;;;;;;;;;;5034274;28;20029;-81
2023/01/08 10:22:48;;;;;;;19.00;9.43;;;;;;;;;;5033005;28;20021;-81
2023/01/08 10:25:19;;;;;;;16.67;9.57;;;;;;;;;;5034899;28;20544;-80
2023/01/08 10:27:53;;;;;;;16.20;8.90;;;;;;;;;;5033270;28;20025;-81
2023/01/08 10:30:21;;;;;;;16.83;10.27;;;;;;;;;;5034860;28;20033;-81
2023/01/08 10:32:54;;;;;;;16.03;9.20;;;;;;;;;;5034671;28;20532;-81
2023/01/08 10:35:28;;;;;;;18.63;9.37;;;;;;;;;;5034731;28;20113;-81
2023/01/08 10:37:54;;;;;;;18.23;9.10;;;;;;;;;;5025384;28;20014;-81
2023/01/08 10:40:49;;;;;;;18.23;10.97;;;;;;;;;;5014727;28;20122;-81
2023/01/08 10:43:18;;;;;;;20.17;10.60;;;;;;;;;;5005032;28;20347;-81
2023/01/08 10:45:57;;;;;;;20.30;9.50;;;;;;;;;;5013061;28;20018;-81
2023/01/08 10:48:28;;;;;;;19.77;9.63;;;;;;;;;;5014694;28;20049;-82
2023/01/08 10:51:12;;;;;;;16.23;8.90;;;;;;;;;;5014545;28;20113;-81
2023/01/08 10:53:40;;;;;;;16.83;8.73;;;;;;;;;;5014586;28;20100;-81
2023/01/08 10:56:06;;;;;;;19.10;9.33;;;;;;;;;;5013405;28;20030;-80
2023/01/08 10:58:42;;;;;;;16.33;10.33;;;;;;;;;;5014036;28;20117;-80
2023/01/08 11:01:11;;;;;;;14.33;8.50;;;;;;;;;;5012918;28;20034;-80
2023/01/08 11:03:37;;;;;;;17.70;9.80;;;;;;;;;;5011800;28;20034;-81
2023/01/08 11:06:16;;;;;;;18.10;9.53;;;;;;;;;;5012394;28;20095;-81
2023/01/08 11:08:50;;;;;;;17.20;10.20;;;;;;;;;;5013311;28;20041;-80
2023/01/08 11:11:16;;;;;;;20.50;10.13;;;;;;;;;;5012270;28;20116;-80
2023/01/08 11:13:57;;;;;;;16.23;9.43;;;;;;;;;;5012993;28;20037;-80
2023/01/08 11:16:37;;;;;;;14.97;8.83;;;;;;;;;;5013317;28;20117;-81
2023/01/08 11:19:04;;;;;;;16.95;9.38;;;;;;;;;;5013201;28;20374;-80
2023/01/08 11:21:31;;;;;;;20.20;10.07;;;;;;;;;;5012787;28;20049;-82
2023/01/08 11:24:20;;;;;;;19.67;11.03;;;;;;;;;;5012005;28;20190;-80
2023/01/08 11:26:52;;;;;;;18.40;9.60;;;;;;;;;;5012909;28;20026;-80
2023/01/08 11:29:26;;;;;;;18.20;9.68;;;;;;;;;;5012118;28;20117;-81
2023/01/08 11:31:58;;;;;;;15.53;8.20;;;;;;;;;;5012130;28;20069;-81
2023/01/08 11:34:37;;;;;;;20.80;10.33;;;;;;;;;;5013904;28;20228;-81
2023/01/08 11:37:08;;;;;;;19.00;10.07;;;;;;;;;;5013519;28;20025;-81
2023/01/08 11:39:35;;;;;;;17.77;9.82;;;;;;;;;;5031836;28;20052;-81
2023/01/08 11:42:30;;;;;;;18.57;9.33;;;;;;;;;;5035008;28;20119;-80
2023/01/08 11:45:17;;;;;;;21.17;10.53;;;;;;;;;;5032887;28;20032;-81
2023/01/08 11:48:14;;;;;;;15.47;8.80;;;;;;;;;;5032394;28;20420;-81
2023/01/08 11:50:51;;;;;;;17.33;9.07;;;;;;;;;;5031397;28;20227;-81
2023/01/08 11:53:25;;;;;;;19.53;9.97;;;;;;;;;;5031369;28;20442;-80
2023/01/08 11:56:16;;;;;;;19.27;9.67;;;;;;;;;;5031273;28;20521;-81
2023/01/08 11:58:53;;;;;;;16.53;9.77;;;;;;;;;;5031568;28;20079;-82
2023/01/08 12:01:34;;;;;;;16.27;9.07;;;;;;;;;;5032565;28;20034;-79
2023/01/08 12:04:02;;;;;;;16.97;9.33;;;;;;;;;;5030780;28;20029;-79
2023/01/08 12:07:00;;;;;;;18.20;9.93;;;;;;;;;;5031189;28;20120;-80
2023/01/08 12:09:37;;;;;;;14.77;8.13;;;;;;;;;;4998957;28;20052;-82
2023/01/08 12:12:37;;;;;;;18.70;9.83;;;;;;;;;;5032318;28;20548;-80
2023/01/08 12:15:33;;;;;;;17.53;9.10;;;;;;;;;;5033054;28;20124;-79
2023/01/08 12:18:21;;;;;;;16.03;8.67;;;;;;;;;;5033494;28;20497;-81
2023/01/08 12:21:03;;;;;;;21.50;9.53;;;;;;;;;;5033567;28;20021;-81
2023/01/08 12:24:15;;;;;;;18.75;9.48;;;;;;;;;;5030954;28;20026;-81
2023/01/08 12:26:56;;;;;;;18.48;9.75;;;;;;;;;;4974788;28;20121;-81
2023/01/08 12:30:00;;;;;;;15.77;9.17;;;;;;;;;;4973983;28;20038;-81
2023/01/08 12:32:28;;;;;;;18.47;10.00;;;;;;;;;;4974063;28;20181;-80
2023/01/08 12:35:08;;;;;;;18.20;9.47;;;;;;;;;;4974197;28;20073;-80
2023/01/08 12:37:52;;;;;;;19.37;9.53;;;;;;;;;;4987764;28;20033;-80
2023/01/08 12:40:37;;;;;;;17.77;9.27;;;;;;;;;;5031247;28;20033;-82
2023/01/08 12:43:11;;;;;;;16.57;8.50;;;;;;;;;;5031780;28;20433;-80
2023/01/08 12:45:44;;;;;;;16.63;8.77;;;;;;;;;;5032052;28;20454;-80
2023/01/08 12:48:17;;;;;;;16.53;9.73;;;;;;;;;;5030534;28;20025;-80
2023/01/08 12:50:56;;;;;;;19.33;9.80;;;;;;;;;;5030674;28;20128;-80
2023/01/08 12:53:40;;;;;;;30.90;11.13;;;;;;;;;;5030997;28;20029;-80
2023/01/08 12:56:48;;;;;;;17.87;10.20;;;;;;;;;;5036106;28;20189;-81
2023/01/08 12:59:41;;;;;;;19.97;9.90;;;;;;;;;;5038071;28;20100;-81
2023/01/08 13:02:31;;;;;;;16.60;9.03;;;;;;;;;;5034720;28;20027;-81
2023/01/08 13:04:57;;;;;;;17.80;9.77;;;;;;;;;;5031169;28;20029;-80
2023/01/08 13:07:41;;;;;;;18.57;9.03;;;;;;;;;;5031992;28;20059;-81
2023/01/08 13:10:18;;;;;;;20.03;10.07;;;;;;;;;;5032441;28;20111;-82
2023/01/08 13:12:50;;;;;;;18.60;9.33;;;;;;;;;;5032524;28;20175;-81
2023/01/08 13:15:24;;;;;;;;;;;;;;;;;;5032182;28;20126;-81
2023/01/08 13:17:52;;;;;;;20.13;10.47;;;;;;;;;;5030899;28;20290;-81
2023/01/08 13:20:27;;;;;;;17.73;9.53;;;;;;;;;;5032153;28;20042;-80
2023/01/08 13:22:55;;;;;;;18.53;9.63;;;;;;;;;;5031725;28;20397;-80
2023/01/08 13:25:21;;;;;;;16.03;9.33;;;;;;;;;;5030274;28;20096;-80
2023/01/08 13:27:47;;;;;;;22.63;10.73;;;;;;;;;;5030467;28;20553;-81
2023/01/08 13:30:37;;;;;;;18.67;9.33;;;;;;;;;;5030290;28;20025;-81
2023/01/08 13:33:34;;;;;;;18.50;10.87;;;;;;;;;;5030919;28;20045;-80
2023/01/08 13:36:12;;;;;;;21.20;11.10;;;;;;;;;;5030433;28;20037;-81
2023/01/08 13:38:41;;;;;;;26.13;12.00;;;;;;;;;;5029541;28;20397;-80
2023/01/08 13:41:30;;;;;;;17.57;9.57;;;;;;;;;;5031921;28;20107;-80
2023/01/08 13:44:03;;;;;;;18.10;9.63;;;;;;;;;;5029901;28;20041;-80
2023/01/08 13:46:30;;;;;;;18.80;9.70;;;;;;;;;;5013635;28;20042;-79
2023/01/08 13:49:04;;;;;;;19.37;9.20;;;;;;;;;;5029365;28;20029;-80
2023/01/08 13:51:37;;;;;;;18.37;9.70;;;;;;;;;;5029873;28;20083;-81
2023/01/08 13:54:19;;;;;;;22.87;9.17;;;;;;;;;;5030666;28;20030;-81
2023/01/08 13:56:48;;;;;;;19.57;8.93;;;;;;;;;;5031341;28;20705;-80
2023/01/08 13:59:32;;;;;;;18.40;10.13;;;;;;;;;;5030551;28;20030;-82
2023/01/08 14:02:00;;;;;;;17.50;10.03;;;;;;;;;;5029923;28;20091;-81
2023/01/08 14:04:26;;;;;;;18.53;9.33;;;;;;;;;;5029826;28;20065;-81
2023/01/08 14:06:52;;;;;;;20.20;9.70;;;;;;;;;;5029934;28;20060;-81
2023/01/08 14:09:23;;;;;;;16.57;9.60;;;;;;;;;;5029750;28;20347;-81
2023/01/08 14:11:52;;;;;;;15.77;8.60;;;;;;;;;;5029618;28;20033;-81
2023/01/08 14:14:20;;;;;;;17.23;9.87;;;;;;;;;;5031346;28;20613;-82
2023/01/08 14:16:47;;;;;;;18.63;9.73;;;;;;;;;;5029753;28;20033;-81
2023/01/08 14:19:22;;;;;;;17.93;8.60;;;;;;;;;;5029759;28;20033;-81
2023/01/08 14:21:52;;;;;;;18.67;10.13;;;;;;;;;;5029507;28;20089;-80
2023/01/08 14:24:18;;;;;;;14.70;8.57;;;;;;;;;;5029999;28;20147;-80
2023/01/08 14:26:54;;;;;;;18.87;8.20;;;;;;;;;;5031028;28;20025;-81
2023/01/08 14:29:22;;;;;;;13.80;7.87;;;;;;;;;;5031834;28;20160;-81
2023/01/08 14:31:51;;;;;;;16.27;7.37;;;;;;;;;;5031286;28;20470;-81
2023/01/08 14:34:24;;;;;;;15.20;8.40;;;;;;;;;;5030236;28;20120;-82
2023/01/08 14:36:51;;;;;;;13.80;8.53;;;;;;;;;;5030330;28;20553;-80
2023/01/08 14:39:33;;;;;;;14.10;8.17;;;;;;;;;;5030901;28;20079;-80
2023/01/08 14:45:06;;;;;;;14.23;8.27;;;;;;;;;;5031031;28;20036;-81
2023/01/08 14:47:50;;;;;;;12.27;7.57;;;;;;;;;;5032723;28;20117;-81